sensor_id;sensor_type;location;lat;lon;timestamp;pressure;altitude;pressure_sealevel;temperature;humidity
33795;BME280;51430;52.242;21.118;2022-11-09T00:01:27;100392.35;;;7.37;100.00
33795;BME280;51430;52.242;21.118;2022-11-09T00:03:57;100395.34;;;7.28;100.00
33795;BME280;51430;52.242;21.118;2022-11-09T00:06:27;100391.90;;;7.24;100.00
33795;BME280;51430;52.242;21.118;2022-11-09T00:08:56;100394.33;;;7.22;100.00
33795;BME280;51430;52.242;21.118;2022-11-09T00:11:32;100391.41;;;7.13;100.00
33795;BME280;51430;52.242;21.118;2022-11-09T00:14:01;100390.70;;;7.19;100.00
33795;BME280;51430;52.242;21.118;2022-11-09T00:16:29;100387.14;;;7.17;100.00
33795;BME280;51430;52.242;21.118;2022-11-09T00:18:57;100390.55;;;7.15;100.00
33795;BME280;51430;52.242;21.118;2022-11-09T00:21:25;100386.74;;;7.13;100.00
33795;BME280;51430;52.242;21.118;2022-11-09T00:23:54;100384.58;;;7.14;100.00
33795;BME280;51430;52.242;21.118;2022-11-09T00:26:22;100385.48;;;7.16;100.00
33795;BME280;51430;52.242;21.118;2022-11-09T00:28:50;100383.08;;;7.13;100.00
33795;BME280;51430;52.242;21.118;2022-11-09T00:31:20;100384.69;;;7.18;100.00
33795;BME280;51430;52.242;21.118;2022-11-09T00:33:54;100381.37;;;7.18;100.00
33795;BME280;51430;52.242;21.118;2022-11-09T00:36:25;100383.51;;;7.17;100.00
33795;BME280;51430;52.242;21.118;2022-11-09T00:38:59;100383.02;;;7.08;100.00
33795;BME280;51430;52.242;21.118;2022-11-09T00:41:27;100385.18;;;7.10;100.00
33795;BME280;51430;52.242;21.118;2022-11-09T00:43:56;100378.92;;;7.13;100.00
33795;BME280;51430;52.242;21.118;2022-11-09T00:46:24;100380.41;;;7.11;100.00
33795;BME280;51430;52.242;21.118;2022-11-09T00:48:54;100379.61;;;7.08;100.00
33795;BME280;51430;52.242;21.118;2022-11-09T00:51:23;100379.46;;;7.01;100.00
33795;BME280;51430;52.242;21.118;2022-11-09T00:53:51;100379.15;;;7.01;100.00
33795;BME280;51430;52.242;21.118;2022-11-09T00:56:22;100375.13;;;6.96;100.00
33795;BME280;51430;52.242;21.118;2022-11-09T00:58:53;100376.95;;;6.97;100.00
33795;BME280;51430;52.242;21.118;2022-11-09T01:01:24;100378.11;;;6.95;100.00
33795;BME280;51430;52.242;21.118;2022-11-09T01:03:53;100378.42;;;6.96;100.00
33795;BME280;51430;52.242;21.118;2022-11-09T01:06:23;100377.64;;;6.97;100.00
33795;BME280;51430;52.242;21.118;2022-11-09T01:08:52;100377.73;;;6.96;100.00
33795;BME280;51430;52.242;21.118;2022-11-09T01:11:22;100374.23;;;6.99;100.00
33795;BME280;51430;52.242;21.118;2022-11-09T01:13:50;100371.65;;;6.99;100.00
33795;BME280;51430;52.242;21.118;2022-11-09T01:16:22;100371.19;;;7.01;100.00
33795;BME280;51430;52.242;21.118;2022-11-09T01:18:55;100372.33;;;7.02;100.00
33795;BME280;51430;52.242;21.118;2022-11-09T01:21:24;100372.98;;;7.05;100.00
33795;BME280;51430;52.242;21.118;2022-11-09T01:23:54;100371.05;;;7.06;100.00
33795;BME280;51430;52.242;21.118;2022-11-09T01:26:23;100371.54;;;7.01;100.00
33795;BME280;51430;52.242;21.118;2022-11-09T01:28:51;100372.09;;;7.00;100.00
33795;BME280;51430;52.242;21.118;2022-11-09T01:31:20;100370.98;;;7.01;100.00
33795;BME280;51430;52.242;21.118;2022-11-09T01:33:49;100370.66;;;6.92;100.00
33795;BME280;51430;52.242;21.118;2022-11-09T01:36:20;100369.43;;;6.96;100.00
33795;BME280;51430;52.242;21.118;2022-11-09T01:38:48;100366.83;;;6.95;100.00
33795;BME280;51430;52.242;21.118;2022-11-09T01:41:20;100366.70;;;6.97;100.00
33795;BME280;51430;52.242;21.118;2022-11-09T01:44:09;100364.36;;;6.99;100.00
33795;BME280;51430;52.242;21.118;2022-11-09T01:46:49;100364.59;;;6.93;100.00
33795;BME280;51430;52.242;21.118;2022-11-09T01:49:42;100357.99;;;6.93;100.00
33795;BME280;51430;52.242;21.118;2022-11-09T01:52:35;100354.70;;;6.93;100.00
33795;BME280;51430;52.242;21.118;2022-11-09T01:55:14;100358.02;;;6.89;100.00
33795;BME280;51430;52.242;21.118;2022-11-09T01:57:51;100353.03;;;6.94;100.00
33795;BME280;51430;52.242;21.118;2022-11-09T02:00:21;100345.67;;;6.96;100.00
33795;BME280;51430;52.242;21.118;2022-11-09T02:03:01;100343.56;;;6.99;100.00
33795;BME280;51430;52.242;21.118;2022-11-09T02:05:33;100339.77;;;6.99;100.00
33795;BME280;51430;52.242;21.118;2022-11-09T02:08:04;100337.42;;;7.03;100.00
33795;BME280;51430;52.242;21.118;2022-11-09T02:10:49;100337.30;;;7.05;100.00
33795;BME280;51430;52.242;21.118;2022-11-09T02:13:23;100337.95;;;7.09;100.00
33795;BME280;51430;52.242;21.118;2022-11-09T02:15:53;100336.64;;;7.07;100.00
33795;BME280;51430;52.242;21.118;2022-11-09T02:18:21;100336.39;;;7.11;100.00
33795;BME280;51430;52.242;21.118;2022-11-09T02:20:54;100337.65;;;7.13;100.00
33795;BME280;51430;52.242;21.118;2022-11-09T02:23:25;100338.58;;;7.15;100.00
33795;BME280;51430;52.242;21.118;2022-11-09T02:26:05;100333.84;;;7.16;100.00
33795;BME280;51430;52.242;21.118;2022-11-09T02:28:36;100329.52;;;7.13;100.00
33795;BME280;51430;52.242;21.118;2022-11-09T02:31:08;100330.31;;;7.11;100.00
33795;BME280;51430;52.242;21.118;2022-11-09T02:33:52;100323.90;;;7.09;100.00
33795;BME280;51430;52.242;21.118;2022-11-09T02:36:22;100321.77;;;7.12;100.00
33795;BME280;51430;52.242;21.118;2022-11-09T02:38:52;100319.79;;;7.08;100.00
33795;BME280;51430;52.242;21.118;2022-11-09T02:41:22;100317.70;;;7.11;100.00
33795;BME280;51430;52.242;21.118;2022-11-09T02:43:52;100318.58;;;7.11;100.00
33795;BME280;51430;52.242;21.118;2022-11-09T02:46:32;100319.60;;;7.13;100.00
33795;BME280;51430;52.242;21.118;2022-11-09T02:49:01;100323.95;;;7.13;100.00
33795;BME280;51430;52.242;21.118;2022-11-09T02:51:29;100319.64;;;7.07;100.00
33795;BME280;51430;52.242;21.118;2022-11-09T02:53:57;100323.07;;;7.08;100.00
33795;BME280;51430;52.242;21.118;2022-11-09T02:56:26;100322.31;;;7.09;100.00
33795;BME280;51430;52.242;21.118;2022-11-09T02:58:55;100322.79;;;7.02;100.00
33795;BME280;51430;52.242;21.118;2022-11-09T03:01:23;100322.77;;;7.02;100.00
33795;BME280;51430;52.242;21.118;2022-11-09T03:03:51;100324.08;;;7.01;100.00
33795;BME280;51430;52.242;21.118;2022-11-09T03:06:19;100324.92;;;6.98;100.00
33795;BME280;51430;52.242;21.118;2022-11-09T03:08:48;100320.30;;;6.97;100.00
33795;BME280;51430;52.242;21.118;2022-11-09T03:11:16;100322.20;;;6.94;100.00
33795;BME280;51430;52.242;21.118;2022-11-09T03:13:44;100327.36;;;6.95;100.00
33795;BME280;51430;52.242;21.118;2022-11-09T03:16:12;100328.66;;;6.96;100.00
33795;BME280;51430;52.242;21.118;2022-11-09T03:18:41;100323.98;;;6.96;100.00
33795;BME280;51430;52.242;21.118;2022-11-09T03:21:09;100331.39;;;6.92;100.00
33795;BME280;51430;52.242;21.118;2022-11-09T03:23:37;100330.56;;;6.94;100.00
33795;BME280;51430;52.242;21.118;2022-11-09T03:26:05;100330.73;;;6.91;100.00
33795;BME280;51430;52.242;21.118;2022-11-09T03:28:33;100336.59;;;6.88;100.00
33795;BME280;51430;52.242;21.118;2022-11-09T03:31:02;100333.85;;;6.88;100.00
33795;BME280;51430;52.242;21.118;2022-11-09T03:33:30;100338.06;;;6.87;100.00
33795;BME280;51430;52.242;21.118;2022-11-09T03:35:58;100338.02;;;6.88;100.00
33795;BME280;51430;52.242;21.118;2022-11-09T03:38:26;100332.78;;;6.91;100.00
33795;BME280;51430;52.242;21.118;2022-11-09T03:40:55;100332.74;;;6.89;100.00
33795;BME280;51430;52.242;21.118;2022-11-09T03:43:23;100328.90;;;6.90;100.00
33795;BME280;51430;52.242;21.118;2022-11-09T03:45:51;100331.20;;;6.91;100.00
33795;BME280;51430;52.242;21.118;2022-11-09T03:48:19;100333.16;;;6.88;100.00
33795;BME280;51430;52.242;21.118;2022-11-09T03:50:47;100331.16;;;6.89;100.00
33795;BME280;51430;52.242;21.118;2022-11-09T03:53:16;100334.55;;;6.85;100.00
33795;BME280;51430;52.242;21.118;2022-11-09T03:55:45;100333.53;;;6.85;100.00
33795;BME280;51430;52.242;21.118;2022-11-09T03:58:13;100329.49;;;6.83;100.00
33795;BME280;51430;52.242;21.118;2022-11-09T04:00:41;100329.20;;;6.82;100.00
33795;BME280;51430;52.242;21.118;2022-11-09T04:03:09;100324.20;;;6.85;100.00
33795;BME280;51430;52.242;21.118;2022-11-09T04:05:38;100319.67;;;6.88;100.00
33795;BME280;51430;52.242;21.118;2022-11-09T04:08:06;100318.54;;;6.86;100.00
33795;BME280;51430;52.242;21.118;2022-11-09T04:10:34;100316.55;;;6.85;100.00
33795;BME280;51430;52.242;21.118;2022-11-09T04:13:02;100320.16;;;6.88;100.00
33795;BME280;51430;52.242;21.118;2022-11-09T04:15:30;100314.05;;;6.86;100.00
33795;BME280;51430;52.242;21.118;2022-11-09T04:18:00;100310.64;;;6.82;100.00
33795;BME280;51430;52.242;21.118;2022-11-09T04:20:30;100307.66;;;6.83;100.00
33795;BME280;51430;52.242;21.118;2022-11-09T04:23:03;100302.27;;;6.81;100.00
33795;BME280;51430;52.242;21.118;2022-11-09T04:25:36;100301.67;;;6.79;100.00
33795;BME280;51430;52.242;21.118;2022-11-09T04:28:05;100298.73;;;6.76;100.00
33795;BME280;51430;52.242;21.118;2022-11-09T04:30:35;100303.91;;;6.79;100.00
33795;BME280;51430;52.242;21.118;2022-11-09T04:33:04;100303.35;;;6.82;100.00
33795;BME280;51430;52.242;21.118;2022-11-09T04:35:33;100302.81;;;6.78;100.00
33795;BME280;51430;52.242;21.118;2022-11-09T04:38:07;100304.70;;;6.75;100.00
33795;BME280;51430;52.242;21.118;2022-11-09T04:40:35;100304.08;;;6.79;100.00
33795;BME280;51430;52.242;21.118;2022-11-09T04:43:06;100307.96;;;6.81;100.00
33795;BME280;51430;52.242;21.118;2022-11-09T04:45:34;100308.34;;;6.78;100.00
33795;BME280;51430;52.242;21.118;2022-11-09T04:48:04;100310.80;;;6.80;100.00
33795;BME280;51430;52.242;21.118;2022-11-09T04:50:33;100308.27;;;6.82;100.00
33795;BME280;51430;52.242;21.118;2022-11-09T04:53:10;100308.08;;;6.79;100.00
33795;BME280;51430;52.242;21.118;2022-11-09T04:55:39;100312.32;;;6.75;100.00
33795;BME280;51430;52.242;21.118;2022-11-09T04:58:08;100316.25;;;6.70;100.00
33795;BME280;51430;52.242;21.118;2022-11-09T05:00:36;100308.09;;;6.70;100.00
33795;BME280;51430;52.242;21.118;2022-11-09T05:03:05;100310.11;;;6.71;100.00
33795;BME280;51430;52.242;21.118;2022-11-09T05:05:35;100311.80;;;6.66;100.00
33795;BME280;51430;52.242;21.118;2022-11-09T05:08:05;100312.42;;;6.65;100.00
33795;BME280;51430;52.242;21.118;2022-11-09T05:10:34;100308.45;;;6.62;100.00
33795;BME280;51430;52.242;21.118;2022-11-09T05:13:22;100306.86;;;6.53;100.00
33795;BME280;51430;52.242;21.118;2022-11-09T05:15:51;100305.09;;;6.54;100.00
33795;BME280;51430;52.242;21.118;2022-11-09T05:18:19;100303.39;;;6.57;100.00
33795;BME280;51430;52.242;21.118;2022-11-09T05:20:47;100305.77;;;6.60;100.00
33795;BME280;51430;52.242;21.118;2022-11-09T05:23:15;100303.46;;;6.55;100.00
33795;BME280;51430;52.242;21.118;2022-11-09T05:26:02;100307.73;;;6.50;100.00
33795;BME280;51430;52.242;21.118;2022-11-09T05:28:30;100312.98;;;6.55;100.00
33795;BME280;51430;52.242;21.118;2022-11-09T05:30:59;100308.15;;;6.58;100.00
33795;BME280;51430;52.242;21.118;2022-11-09T05:33:27;100306.97;;;6.52;100.00
33795;BME280;51430;52.242;21.118;2022-11-09T05:35:56;100303.15;;;6.55;100.00
33795;BME280;51430;52.242;21.118;2022-11-09T05:38:24;100299.98;;;6.50;100.00
33795;BME280;51430;52.242;21.118;2022-11-09T05:40:53;100303.48;;;6.52;100.00
33795;BME280;51430;52.242;21.118;2022-11-09T05:43:21;100303.13;;;6.55;100.00
33795;BME280;51430;52.242;21.118;2022-11-09T05:45:49;100306.63;;;6.57;100.00
33795;BME280;51430;52.242;21.118;2022-11-09T05:48:18;100305.20;;;6.55;100.00
33795;BME280;51430;52.242;21.118;2022-11-09T05:50:46;100304.20;;;6.54;100.00
33795;BME280;51430;52.242;21.118;2022-11-09T05:53:14;100309.23;;;6.57;100.00
33795;BME280;51430;52.242;21.118;2022-11-09T05:55:43;100310.67;;;6.56;100.00
33795;BME280;51430;52.242;21.118;2022-11-09T05:58:11;100313.56;;;6.57;100.00
33795;BME280;51430;52.242;21.118;2022-11-09T06:00:39;100314.30;;;6.59;100.00
33795;BME280;51430;52.242;21.118;2022-11-09T06:03:09;100316.28;;;6.61;100.00
33795;BME280;51430;52.242;21.118;2022-11-09T06:05:39;100311.65;;;6.60;100.00
33795;BME280;51430;52.242;21.118;2022-11-09T06:08:10;100315.14;;;6.57;100.00
33795;BME280;51430;52.242;21.118;2022-11-09T06:10:42;100318.84;;;6.61;100.00
33795;BME280;51430;52.242;21.118;2022-11-09T06:13:11;100317.38;;;6.68;100.00
33795;BME280;51430;52.242;21.118;2022-11-09T06:15:39;100319.46;;;6.68;100.00
33795;BME280;51430;52.242;21.118;2022-11-09T06:18:07;100321.23;;;6.65;100.00
33795;BME280;51430;52.242;21.118;2022-11-09T06:20:36;100318.41;;;6.63;100.00
33795;BME280;51430;52.242;21.118;2022-11-09T06:23:04;100316.13;;;6.69;100.00
33795;BME280;51430;52.242;21.118;2022-11-09T06:25:32;100316.00;;;6.74;100.00
33795;BME280;51430;52.242;21.118;2022-11-09T06:28:01;100316.70;;;6.82;100.00
33795;BME280;51430;52.242;21.118;2022-11-09T06:30:32;100322.86;;;6.89;100.00
33795;BME280;51430;52.242;21.118;2022-11-09T06:33:01;100323.66;;;6.96;100.00
33795;BME280;51430;52.242;21.118;2022-11-09T06:35:29;100321.20;;;6.99;100.00
33795;BME280;51430;52.242;21.118;2022-11-09T06:37:59;100321.52;;;7.02;100.00
33795;BME280;51430;52.242;21.118;2022-11-09T06:40:28;100322.38;;;7.05;100.00
33795;BME280;51430;52.242;21.118;2022-11-09T06:43:00;100320.69;;;7.16;100.00
33795;BME280;51430;52.242;21.118;2022-11-09T06:45:29;100322.02;;;7.25;100.00
33795;BME280;51430;52.242;21.118;2022-11-09T06:48:02;100322.17;;;7.33;100.00
33795;BME280;51430;52.242;21.118;2022-11-09T06:50:32;100322.56;;;7.35;100.00
33795;BME280;51430;52.242;21.118;2022-11-09T06:53:04;100326.14;;;7.36;100.00
33795;BME280;51430;52.242;21.118;2022-11-09T06:55:33;100322.54;;;7.39;100.00
33795;BME280;51430;52.242;21.118;2022-11-09T06:58:07;100320.96;;;7.41;100.00
33795;BME280;51430;52.242;21.118;2022-11-09T07:00:36;100318.17;;;7.41;100.00
33795;BME280;51430;52.242;21.118;2022-11-09T07:03:05;100319.24;;;7.47;100.00
33795;BME280;51430;52.242;21.118;2022-11-09T07:05:37;100314.42;;;7.67;100.00
33795;BME280;51430;52.242;21.118;2022-11-09T07:08:07;100316.41;;;7.87;100.00
33795;BME280;51430;52.242;21.118;2022-11-09T07:10:35;100313.38;;;8.05;99.29
33795;BME280;51430;52.242;21.118;2022-11-09T07:13:04;100311.38;;;8.16;98.55
33795;BME280;51430;52.242;21.118;2022-11-09T07:15:35;100310.58;;;8.13;97.94
33795;BME280;51430;52.242;21.118;2022-11-09T07:18:06;100310.77;;;8.10;97.97
33795;BME280;51430;52.242;21.118;2022-11-09T07:20:36;100312.16;;;8.04;98.27
33795;BME280;51430;52.242;21.118;2022-11-09T07:23:04;100316.34;;;8.20;98.18
33795;BME280;51430;52.242;21.118;2022-11-09T07:25:32;100317.56;;;8.33;97.84
33795;BME280;51430;52.242;21.118;2022-11-09T07:28:05;100310.52;;;8.24;97.77
33795;BME280;51430;52.242;21.118;2022-11-09T07:30:36;100311.02;;;8.38;97.50
33795;BME280;51430;52.242;21.118;2022-11-09T07:33:12;100310.11;;;8.43;97.25
33795;BME280;51430;52.242;21.118;2022-11-09T07:35:41;100315.09;;;8.52;97.21
33795;BME280;51430;52.242;21.118;2022-11-09T07:38:10;100315.22;;;8.62;96.72
33795;BME280;51430;52.242;21.118;2022-11-09T07:40:38;100313.34;;;8.74;96.30
33795;BME280;51430;52.242;21.118;2022-11-09T07:43:08;100313.09;;;8.83;95.65
33795;BME280;51430;52.242;21.118;2022-11-09T07:45:37;100315.15;;;8.83;95.35
33795;BME280;51430;52.242;21.118;2022-11-09T07:48:08;100316.20;;;8.88;95.31
33795;BME280;51430;52.242;21.118;2022-11-09T07:50:38;100318.29;;;9.03;95.24
33795;BME280;51430;52.242;21.118;2022-11-09T07:53:10;100315.40;;;9.04;94.40
33795;BME280;51430;52.242;21.118;2022-11-09T07:55:40;100318.30;;;9.07;94.49
33795;BME280;51430;52.242;21.118;2022-11-09T07:58:13;100315.48;;;9.15;94.22
33795;BME280;51430;52.242;21.118;2022-11-09T08:00:42;100314.79;;;9.15;94.21
33795;BME280;51430;52.242;21.118;2022-11-09T08:03:11;100312.05;;;9.19;93.89
33795;BME280;51430;52.242;21.118;2022-11-09T08:05:39;100311.55;;;9.29;93.97
33795;BME280;51430;52.242;21.118;2022-11-09T08:08:10;100313.81;;;9.34;93.52
33795;BME280;51430;52.242;21.118;2022-11-09T08:10:39;100311.02;;;9.36;93.62
33795;BME280;51430;52.242;21.118;2022-11-09T08:13:12;100315.39;;;9.48;93.47
33795;BME280;51430;52.242;21.118;2022-11-09T08:15:41;100313.16;;;9.64;92.91
33795;BME280;51430;52.242;21.118;2022-11-09T08:18:15;100311.45;;;9.92;91.76
33795;BME280;51430;52.242;21.118;2022-11-09T08:20:45;100312.67;;;10.11;90.44
33795;BME280;51430;52.242;21.118;2022-11-09T08:23:15;100305.77;;;10.15;89.96
33795;BME280;51430;52.242;21.118;2022-11-09T08:25:43;100308.84;;;10.31;89.73
33795;BME280;51430;52.242;21.118;2022-11-09T08:28:12;100312.52;;;10.52;88.49
33795;BME280;51430;52.242;21.118;2022-11-09T08:30:43;100308.20;;;10.53;88.15
33795;BME280;51430;52.242;21.118;2022-11-09T08:33:12;100314.03;;;10.77;87.63
33795;BME280;51430;52.242;21.118;2022-11-09T08:35:41;100306.96;;;11.00;86.64
33795;BME280;51430;52.242;21.118;2022-11-09T08:38:09;100307.27;;;11.07;86.17
33795;BME280;51430;52.242;21.118;2022-11-09T08:40:37;100306.94;;;11.42;85.13
33795;BME280;51430;52.242;21.118;2022-11-09T08:43:07;100307.27;;;11.81;84.23
33795;BME280;51430;52.242;21.118;2022-11-09T08:45:37;100308.60;;;11.89;82.88
33795;BME280;51430;52.242;21.118;2022-11-09T08:48:07;100305.02;;;11.87;82.81
33795;BME280;51430;52.242;21.118;2022-11-09T08:50:36;100303.37;;;11.62;83.73
33795;BME280;51430;52.242;21.118;2022-11-09T08:53:05;100301.46;;;11.65;84.47
33795;BME280;51430;52.242;21.118;2022-11-09T08:55:35;100297.84;;;12.02;83.11
33795;BME280;51430;52.242;21.118;2022-11-09T08:58:03;100297.16;;;12.19;82.66
33795;BME280;51430;52.242;21.118;2022-11-09T09:00:32;100303.45;;;12.29;82.24
33795;BME280;51430;52.242;21.118;2022-11-09T09:03:06;100303.39;;;12.48;81.73
33795;BME280;51430;52.242;21.118;2022-11-09T09:05:35;100300.95;;;12.56;81.09
33795;BME280;51430;52.242;21.118;2022-11-09T09:08:05;100301.33;;;12.76;80.61
33795;BME280;51430;52.242;21.118;2022-11-09T09:10:34;100309.14;;;12.75;80.16
33795;BME280;51430;52.242;21.118;2022-11-09T09:13:03;100300.99;;;12.90;80.16
33795;BME280;51430;52.242;21.118;2022-11-09T09:15:31;100303.33;;;13.09;79.47
33795;BME280;51430;52.242;21.118;2022-11-09T09:18:00;100302.29;;;13.31;78.36
33795;BME280;51430;52.242;21.118;2022-11-09T09:20:30;100306.12;;;13.43;77.51
33795;BME280;51430;52.242;21.118;2022-11-09T09:22:59;100301.31;;;13.16;78.32
33795;BME280;51430;52.242;21.118;2022-11-09T09:25:27;100303.81;;;12.96;79.17
33795;BME280;51430;52.242;21.118;2022-11-09T09:27:56;100303.56;;;12.91;79.28
33795;BME280;51430;52.242;21.118;2022-11-09T09:30:25;100311.67;;;13.36;78.69
33795;BME280;51430;52.242;21.118;2022-11-09T09:33:00;100314.14;;;13.98;76.08
33795;BME280;51430;52.242;21.118;2022-11-09T09:35:28;100318.27;;;14.42;73.99
33795;BME280;51430;52.242;21.118;2022-11-09T09:37:57;100318.46;;;14.40;73.02
33795;BME280;51430;52.242;21.118;2022-11-09T09:40:51;100320.17;;;14.12;73.53
33795;BME280;51430;52.242;21.118;2022-11-09T09:43:43;100319.88;;;14.29;73.47
33795;BME280;51430;52.242;21.118;2022-11-09T09:48:49;100314.45;;;14.57;71.77
33795;BME280;51430;52.242;21.118;2022-11-09T09:53:58;100319.44;;;15.11;70.25
33795;BME280;51430;52.242;21.118;2022-11-09T09:56:34;100324.70;;;15.11;69.49
33795;BME280;51430;52.242;21.118;2022-11-09T10:02:00;100324.09;;;14.06;73.43
33795;BME280;51430;52.242;21.118;2022-11-09T10:04:36;100321.92;;;14.05;73.92
33795;BME280;51430;52.242;21.118;2022-11-09T10:07:24;100314.23;;;13.74;74.54
33795;BME280;51430;52.242;21.118;2022-11-09T10:10:16;100309.33;;;13.54;75.63
33795;BME280;51430;52.242;21.118;2022-11-09T10:15:48;100306.54;;;13.32;76.61
33795;BME280;51430;52.242;21.118;2022-11-09T10:18:50;100308.34;;;13.32;76.62
33795;BME280;51430;52.242;21.118;2022-11-09T10:24:22;100297.34;;;12.94;78.46
33795;BME280;51430;52.242;21.118;2022-11-09T10:27:45;100301.29;;;13.21;77.91
33795;BME280;51430;52.242;21.118;2022-11-09T10:30:16;100304.14;;;13.22;77.47
33795;BME280;51430;52.242;21.118;2022-11-09T10:32:48;100303.54;;;13.25;77.47
33795;BME280;51430;52.242;21.118;2022-11-09T10:35:21;100304.50;;;13.04;77.96
33795;BME280;51430;52.242;21.118;2022-11-09T10:37:52;100306.61;;;13.06;78.21
33795;BME280;51430;52.242;21.118;2022-11-09T10:40:23;100303.85;;;13.13;78.07
33795;BME280;51430;52.242;21.118;2022-11-09T10:43:03;100301.84;;;13.24;77.79
33795;BME280;51430;52.242;21.118;2022-11-09T10:45:36;100299.94;;;13.22;77.64
33795;BME280;51430;52.242;21.118;2022-11-09T10:48:09;100293.34;;;13.12;78.12
33795;BME280;51430;52.242;21.118;2022-11-09T10:50:46;100291.64;;;13.25;77.89
33795;BME280;51430;52.242;21.118;2022-11-09T10:56:14;100293.39;;;13.35;77.50
33795;BME280;51430;52.242;21.118;2022-11-09T10:58:50;100296.68;;;13.62;76.23
33795;BME280;51430;52.242;21.118;2022-11-09T11:01:23;100297.87;;;13.67;76.00
33795;BME280;51430;52.242;21.118;2022-11-09T11:03:54;100287.06;;;13.72;75.85
33795;BME280;51430;52.242;21.118;2022-11-09T11:11:34;100288.48;;;13.81;75.83
33795;BME280;51430;52.242;21.118;2022-11-09T11:14:17;100292.64;;;13.93;75.27
33795;BME280;51430;52.242;21.118;2022-11-09T11:16:51;100287.77;;;13.85;75.15
33795;BME280;51430;52.242;21.118;2022-11-09T11:19:40;100283.39;;;13.87;75.22
33795;BME280;51430;52.242;21.118;2022-11-09T11:22:17;100283.70;;;13.73;75.58
33795;BME280;51430;52.242;21.118;2022-11-09T11:24:53;100279.44;;;13.94;75.39
33795;BME280;51430;52.242;21.118;2022-11-09T11:27:45;100277.98;;;14.57;73.55
33795;BME280;51430;52.242;21.118;2022-11-09T11:30:32;100279.86;;;15.35;69.93
33795;BME280;51430;52.242;21.118;2022-11-09T11:33:15;100282.19;;;15.79;68.17
33795;BME280;51430;52.242;21.118;2022-11-09T11:36:02;100282.36;;;15.37;68.86
33795;BME280;51430;52.242;21.118;2022-11-09T11:38:44;100282.23;;;14.78;70.56
33795;BME280;51430;52.242;21.118;2022-11-09T11:44:26;100276.94;;;14.70;71.40
33795;BME280;51430;52.242;21.118;2022-11-09T11:47:08;100276.41;;;14.84;70.76
33795;BME280;51430;52.242;21.118;2022-11-09T11:49:48;100275.30;;;14.92;70.69
33795;BME280;51430;52.242;21.118;2022-11-09T12:01:11;100279.30;;;15.27;70.06
33795;BME280;51430;52.242;21.118;2022-11-09T12:06:59;100280.63;;;15.17;70.00
33795;BME280;51430;52.242;21.118;2022-11-09T12:21:24;100294.29;;;16.99;63.81
33795;BME280;51430;52.242;21.118;2022-11-09T12:30:20;100283.19;;;18.64;58.56
33795;BME280;51430;52.242;21.118;2022-11-09T12:36:12;100275.93;;;18.07;59.66
33795;BME280;51430;52.242;21.118;2022-11-09T12:39:12;100269.80;;;17.82;60.49
33795;BME280;51430;52.242;21.118;2022-11-09T12:41:38;100269.39;;;17.81;60.90
33795;BME280;51430;52.242;21.118;2022-11-09T12:44:57;100264.03;;;17.74;60.87
33795;BME280;51430;52.242;21.118;2022-11-09T12:47:31;100265.09;;;17.62;61.21
33795;BME280;51430;52.242;21.118;2022-11-09T12:50:03;100262.77;;;17.22;62.34
33795;BME280;51430;52.242;21.118;2022-11-09T12:52:32;100257.41;;;16.68;64.15
33795;BME280;51430;52.242;21.118;2022-11-09T12:55:03;100260.74;;;16.53;64.62
33795;BME280;51430;52.242;21.118;2022-11-09T12:57:32;100263.36;;;15.87;66.54
33795;BME280;51430;52.242;21.118;2022-11-09T13:00:00;100254.84;;;15.64;67.80
33795;BME280;51430;52.242;21.118;2022-11-09T13:02:32;100253.85;;;15.41;68.62
33795;BME280;51430;52.242;21.118;2022-11-09T13:05:05;100260.34;;;15.31;69.12
33795;BME280;51430;52.242;21.118;2022-11-09T13:10:34;100270.00;;;14.70;71.19
33795;BME280;51430;52.242;21.118;2022-11-09T13:15:35;100278.31;;;14.44;72.50
33795;BME280;51430;52.242;21.118;2022-11-09T13:18:24;100280.02;;;14.37;73.00
33795;BME280;51430;52.242;21.118;2022-11-09T13:20:53;100277.58;;;14.22;73.47
33795;BME280;51430;52.242;21.118;2022-11-09T13:23:35;100279.65;;;14.09;74.21
33795;BME280;51430;52.242;21.118;2022-11-09T13:32:04;100286.33;;;13.82;75.64
33795;BME280;51430;52.242;21.118;2022-11-09T13:34:54;100277.23;;;13.70;76.11
33795;BME280;51430;52.242;21.118;2022-11-09T13:45:43;100267.08;;;13.64;77.07
33795;BME280;51430;52.242;21.118;2022-11-09T13:50:54;100267.65;;;13.45;78.06
33795;BME280;51430;52.242;21.118;2022-11-09T13:56:22;100274.02;;;13.38;78.64
33795;BME280;51430;52.242;21.118;2022-11-09T13:59:04;100275.69;;;13.37;78.80
33795;BME280;51430;52.242;21.118;2022-11-09T14:01:44;100274.13;;;13.30;78.91
33795;BME280;51430;52.242;21.118;2022-11-09T14:04:38;100269.02;;;13.25;79.29
33795;BME280;51430;52.242;21.118;2022-11-09T14:07:25;100271.16;;;13.23;79.49
33795;BME280;51430;52.242;21.118;2022-11-09T14:10:19;100275.71;;;13.25;79.61
33795;BME280;51430;52.242;21.118;2022-11-09T14:18:21;100274.71;;;13.14;79.93
33795;BME280;51430;52.242;21.118;2022-11-09T14:24:22;100274.48;;;12.97;80.88
33795;BME280;51430;52.242;21.118;2022-11-09T14:27:21;100276.91;;;12.91;81.30
33795;BME280;51430;52.242;21.118;2022-11-09T14:29:54;100280.60;;;13.01;80.83
33795;BME280;51430;52.242;21.118;2022-11-09T14:35:32;100284.06;;;13.04;80.73
33795;BME280;51430;52.242;21.118;2022-11-09T14:40:45;100292.11;;;13.02;80.99
33795;BME280;51430;52.242;21.118;2022-11-09T14:43:29;100294.44;;;12.99;81.08
33795;BME280;51430;52.242;21.118;2022-11-09T14:46:18;100295.08;;;12.91;81.46